Time;durP1;ratioP1;P1;durP2;ratioP2;P2;SDS_P1;SDS_P2;PMS_P1;PMS_P2;Temp;Humidity;BMP_temperature;BMP_pressure;BME280_temperature;BME280_humidity;BME280_pressure;Samples;Min_cycle;Max_cycle;Signal;HPM_P1;HPM_P2
2021/11/30 00:00:05;;;;;;;0.35;0.35;;;;;;;;;;5074756;28;20147;-88
2021/11/30 00:02:32;;;;;;;0.10;0.10;;;;;;;;;;5074172;28;20110;-87
2021/11/30 00:04:57;;;;;;;3.35;0.82;;;;;;;;;;5074755;28;20012;-88
2021/11/30 00:07:22;;;;;;;1.67;1.58;;;;;;;;;;5083198;28;20532;-89
2021/11/30 00:12:20;;;;;;;1.70;0.77;;;;;;;;;;5095084;28;20045;-89
2021/11/30 00:14:47;;;;;;;1.13;1.10;;;;;;;;;;5076894;28;20117;-90
2021/11/30 00:17:13;;;;;;;0.10;0.10;;;;;;;;;;5095483;28;20103;-90
2021/11/30 00:19:39;;;;;;;0.20;0.20;;;;;;;;;;5091647;28;20169;-90
2021/11/30 00:22:05;;;;;;;0.77;0.73;;;;;;;;;;5094667;28;20020;-90
2021/11/30 00:24:31;;;;;;;0.30;0.30;;;;;;;;;;5095135;28;20016;-91
2021/11/30 00:26:57;;;;;;;0.20;0.20;;;;;;;;;;5077000;28;20082;-90
2021/11/30 00:29:22;;;;;;;0.63;0.63;;;;;;;;;;5095085;28;20016;-90
2021/11/30 00:31:48;;;;;;;0.30;0.30;;;;;;;;;;5094812;28;20024;-90
2021/11/30 00:34:13;;;;;;;0.17;0.17;;;;;;;;;;5095150;28;20033;-90
2021/11/30 00:36:38;;;;;;;0.57;0.57;;;;;;;;;;5090043;28;20081;-90
2021/11/30 00:39:04;;;;;;;0.80;0.80;;;;;;;;;;5088547;28;20032;-90
2021/11/30 00:41:29;;;;;;;2.90;1.65;;;;;;;;;;5094432;28;20052;-91
2021/11/30 00:43:55;;;;;;;0.40;0.40;;;;;;;;;;5094722;28;20019;-91
2021/11/30 00:46:32;;;;;;;0.60;0.60;;;;;;;;;;5094741;28;20111;-90
2021/11/30 00:48:58;;;;;;;1.27;1.00;;;;;;;;;;5094531;28;20028;-90
2021/11/30 00:51:23;;;;;;;2.75;1.30;;;;;;;;;;5094309;28;20028;-90
2021/11/30 00:53:49;;;;;;;0.20;0.20;;;;;;;;;;5094228;28;20032;-90
2021/11/30 00:56:16;;;;;;;0.35;0.35;;;;;;;;;;5094629;28;20019;-89
2021/11/30 00:59:27;;;;;;;0.10;0.10;;;;;;;;;;5094339;28;20059;-91
2021/11/30 01:01:53;;;;;;;0.10;0.10;;;;;;;;;;5087893;28;20034;-91
2021/11/30 01:04:18;;;;;;;0.20;0.20;;;;;;;;;;5094174;28;20032;-90
2021/11/30 01:06:43;;;;;;;3.42;2.35;;;;;;;;;;5094563;28;20141;-90
2021/11/30 01:09:09;;;;;;;0.20;0.20;;;;;;;;;;5093938;28;20016;-89
2021/11/30 01:11:34;;;;;;;0.43;0.43;;;;;;;;;;5094371;28;20479;-90
2021/11/30 01:14:00;;;;;;;0.47;0.47;;;;;;;;;;5090847;28;20012;-89
2021/11/30 01:16:25;;;;;;;2.47;1.13;;;;;;;;;;5090574;28;20016;-89
2021/11/30 01:18:50;;;;;;;0.40;0.40;;;;;;;;;;5093669;28;20036;-89
2021/11/30 01:21:15;;;;;;;0.75;0.75;;;;;;;;;;5093957;28;20040;-89
2021/11/30 01:23:41;;;;;;;1.08;0.98;;;;;;;;;;5093749;28;20020;-89
2021/11/30 01:26:06;;;;;;;3.10;2.53;;;;;;;;;;5089022;28;20111;-90
2021/11/30 01:28:31;;;;;;;4.30;1.13;;;;;;;;;;5093917;28;20062;-90
2021/11/30 01:30:58;;;;;;;1.67;1.05;;;;;;;;;;5093922;28;20008;-89
2021/11/30 01:33:23;;;;;;;0.43;0.43;;;;;;;;;;5093990;28;20032;-91
2021/11/30 01:35:49;;;;;;;0.65;0.65;;;;;;;;;;5093944;28;20456;-89
2021/11/30 01:38:15;;;;;;;0.35;0.35;;;;;;;;;;5090518;28;20103;-89
2021/11/30 01:40:41;;;;;;;0.40;0.40;;;;;;;;;;5093890;28;20116;-89
2021/11/30 01:43:08;;;;;;;0.70;0.70;;;;;;;;;;5090173;28;20027;-89
2021/11/30 01:50:30;;;;;;;0.30;0.30;;;;;;;;;;5093913;28;20017;-90
2021/11/30 01:52:56;;;;;;;0.77;0.77;;;;;;;;;;5093754;28;20016;-88
2021/11/30 01:55:21;;;;;;;0.70;0.70;;;;;;;;;;5094017;28;20032;-90
2021/11/30 01:57:47;;;;;;;9.38;3.63;;;;;;;;;;5093638;28;20047;-90
2021/11/30 02:00:14;;;;;;;1.65;1.55;;;;;;;;;;5094009;28;20490;-90
2021/11/30 02:02:40;;;;;;;2.75;1.63;;;;;;;;;;5090082;28;20036;-88
2021/11/30 02:05:05;;;;;;;0.20;0.20;;;;;;;;;;5093630;28;20004;-88
2021/11/30 02:07:30;;;;;;;1.27;0.98;;;;;;;;;;5093571;28;20034;-88
2021/11/30 02:09:56;;;;;;;1.17;0.73;;;;;;;;;;5093189;28;20039;-89
2021/11/30 02:12:21;;;;;;;0.15;0.15;;;;;;;;;;5093495;28;20035;-89
2021/11/30 02:14:47;;;;;;;0.30;0.30;;;;;;;;;;5093437;28;20027;-90
2021/11/30 02:17:13;;;;;;;1.85;1.75;;;;;;;;;;5090322;28;20028;-89
2021/11/30 02:19:43;;;;;;;2.47;1.35;;;;;;;;;;5092780;28;20491;-89
2021/11/30 02:22:11;;;;;;;0.10;0.10;;;;;;;;;;5095675;28;20016;-89
2021/11/30 02:24:37;;;;;;;0.10;0.10;;;;;;;;;;5097159;28;20499;-90
2021/11/30 02:27:02;;;;;;;0.88;0.88;;;;;;;;;;5097242;28;20028;-90
2021/11/30 02:29:27;;;;;;;1.38;1.27;;;;;;;;;;5092035;28;20020;-89
2021/11/30 02:31:53;;;;;;;0.10;0.10;;;;;;;;;;5097390;28;20036;-90
2021/11/30 02:34:18;;;;;;;0.10;0.10;;;;;;;;;;5097462;28;20390;-91
2021/11/30 02:39:11;;;;;;;0.25;0.25;;;;;;;;;;5097290;28;20048;-91
2021/11/30 02:41:37;;;;;;;0.10;0.10;;;;;;;;;;5096892;28;20052;-90
2021/11/30 02:44:03;;;;;;;0.10;0.10;;;;;;;;;;5091922;28;20376;-90
2021/11/30 02:46:30;;;;;;;0.10;0.10;;;;;;;;;;5097060;28;20035;-90
2021/11/30 02:48:55;;;;;;;0.30;0.30;;;;;;;;;;5096654;28;20016;-90
2021/11/30 02:51:21;;;;;;;0.43;0.28;;;;;;;;;;5097075;28;20020;-91
2021/11/30 02:53:46;;;;;;;0.10;0.10;;;;;;;;;;5093509;28;20067;-91
2021/11/30 02:56:12;;;;;;;0.00;0.00;;;;;;;;;;5097323;28;20012;-91
2021/11/30 02:58:37;;;;;;;0.28;0.25;;;;;;;;;;5087032;28;20030;-91
2021/11/30 03:01:06;;;;;;;0.25;0.25;;;;;;;;;;5096516;28;20111;-90
2021/11/30 03:03:31;;;;;;;3.10;0.43;;;;;;;;;;5083642;28;20078;-90
2021/11/30 03:05:56;;;;;;;0.10;0.10;;;;;;;;;;5096833;28;20444;-90
2021/11/30 03:08:22;;;;;;;0.10;0.10;;;;;;;;;;5096179;28;20032;-90
2021/11/30 03:10:47;;;;;;;0.10;0.10;;;;;;;;;;5093452;28;20030;-90
2021/11/30 03:13:12;;;;;;;0.20;0.20;;;;;;;;;;5096741;28;20013;-91
2021/11/30 03:15:38;;;;;;;0.20;0.20;;;;;;;;;;5097153;28;20425;-92
2021/11/30 03:18:03;;;;;;;0.25;0.25;;;;;;;;;;5091599;28;20024;-90
2021/11/30 03:20:29;;;;;;;0.20;0.20;;;;;;;;;;5088768;28;20061;-91
2021/11/30 03:22:54;;;;;;;0.10;0.10;;;;;;;;;;5096507;28;20024;-92
2021/11/30 03:25:19;;;;;;;0.10;0.10;;;;;;;;;;5093252;28;20103;-91
2021/11/30 03:27:46;;;;;;;0.10;0.10;;;;;;;;;;5093175;28;20027;-90
2021/11/30 03:30:11;;;;;;;0.10;0.10;;;;;;;;;;5095956;28;20502;-91
2021/11/30 03:35:22;;;;;;;0.10;0.10;;;;;;;;;;5095961;28;20030;-91
2021/11/30 03:37:47;;;;;;;2.90;1.02;;;;;;;;;;5096061;28;20099;-88
2021/11/30 03:40:12;;;;;;;0.10;0.10;;;;;;;;;;5091139;28;20170;-92
2021/11/30 03:42:38;;;;;;;0.10;0.10;;;;;;;;;;5093559;28;20051;-91
2021/11/30 03:45:04;;;;;;;0.10;0.10;;;;;;;;;;5091898;28;20112;-91
2021/11/30 03:47:29;;;;;;;0.00;0.00;;;;;;;;;;5091311;28;20020;-91
2021/11/30 03:49:54;;;;;;;0.10;0.10;;;;;;;;;;5096038;28;20020;-91
2021/11/30 03:52:20;;;;;;;0.10;0.10;;;;;;;;;;5095961;28;20115;-92
2021/11/30 03:54:45;;;;;;;0.10;0.10;;;;;;;;;;5096003;28;20016;-92
2021/11/30 03:57:10;;;;;;;0.10;0.10;;;;;;;;;;5096249;28;20059;-91
2021/11/30 03:59:35;;;;;;;0.10;0.10;;;;;;;;;;5095818;28;20062;-91
2021/11/30 04:02:01;;;;;;;0.00;0.00;;;;;;;;;;5096053;28;20406;-90
2021/11/30 04:04:30;;;;;;;0.10;0.10;;;;;;;;;;5095308;28;20077;-90
2021/11/30 04:06:56;;;;;;;0.10;0.10;;;;;;;;;;5077360;28;20426;-90
2021/11/30 04:09:22;;;;;;;0.10;0.10;;;;;;;;;;5077060;28;20116;-91
2021/11/30 04:11:48;;;;;;;0.03;0.03;;;;;;;;;;5102431;28;20399;-90
2021/11/30 04:14:14;;;;;;;0.00;0.00;;;;;;;;;;5096513;28;20028;-91
2021/11/30 04:16:40;;;;;;;0.10;0.10;;;;;;;;;;5095073;28;20023;-90
2021/11/30 04:19:05;;;;;;;0.00;0.00;;;;;;;;;;5095102;28;20032;-90
2021/11/30 04:21:31;;;;;;;0.00;0.00;;;;;;;;;;5095110;28;20110;-90
2021/11/30 04:23:56;;;;;;;0.10;0.10;;;;;;;;;;5091477;28;20024;-90
2021/11/30 04:26:21;;;;;;;0.00;0.00;;;;;;;;;;5095367;28;20354;-91
2021/11/30 04:28:47;;;;;;;0.10;0.10;;;;;;;;;;5091325;28;20039;-90
2021/11/30 04:31:12;;;;;;;0.00;0.00;;;;;;;;;;5085638;28;20024;-89
2021/11/30 04:33:38;;;;;;;0.10;0.10;;;;;;;;;;5095217;28;20452;-89
2021/11/30 04:36:06;;;;;;;0.00;0.00;;;;;;;;;;5091289;28;20039;-90
2021/11/30 04:38:31;;;;;;;0.10;0.10;;;;;;;;;;5090974;28;20051;-91
2021/11/30 04:40:57;;;;;;;0.10;0.10;;;;;;;;;;5094808;28;20472;-90
2021/11/30 04:43:22;;;;;;;0.00;0.00;;;;;;;;;;5076626;28;20032;-91
2021/11/30 04:48:18;;;;;;;0.00;0.00;;;;;;;;;;5094715;28;20016;-89
2021/11/30 04:50:47;;;;;;;0.00;0.00;;;;;;;;;;5094624;28;20028;-90
2021/11/30 04:53:13;;;;;;;0.10;0.10;;;;;;;;;;5094082;28;20035;-91
2021/11/30 04:55:38;;;;;;;0.10;0.10;;;;;;;;;;5095044;28;20020;-90
2021/11/30 04:58:04;;;;;;;3.83;0.63;;;;;;;;;;5094259;28;20553;-90
2021/11/30 05:00:30;;;;;;;0.00;0.00;;;;;;;;;;5094305;28;20020;-90
2021/11/30 05:02:55;;;;;;;0.45;0.45;;;;;;;;;;5091096;28;20471;-91
2021/11/30 05:05:21;;;;;;;0.10;0.10;;;;;;;;;;5091140;28;20024;-89
2021/11/30 05:07:46;;;;;;;0.10;0.10;;;;;;;;;;5094505;28;20095;-91
2021/11/30 05:10:13;;;;;;;0.22;0.22;;;;;;;;;;5094439;28;20028;-90
2021/11/30 05:12:40;;;;;;;0.40;0.40;;;;;;;;;;5094411;28;20028;-90
2021/11/30 05:15:06;;;;;;;0.10;0.10;;;;;;;;;;5094246;28;20065;-90
2021/11/30 05:17:31;;;;;;;0.00;0.00;;;;;;;;;;5091022;28;20024;-90
2021/11/30 05:19:56;;;;;;;0.00;0.00;;;;;;;;;;5093782;28;20036;-90
2021/11/30 05:22:21;;;;;;;12.65;1.55;;;;;;;;;;5094171;28;20020;-90
2021/11/30 05:24:47;;;;;;;0.00;0.00;;;;;;;;;;5094246;28;20349;-91
2021/11/30 05:27:13;;;;;;;0.40;0.32;;;;;;;;;;5094564;28;20028;-90
2021/11/30 05:29:38;;;;;;;0.00;0.00;;;;;;;;;;5089226;28;20028;-90
2021/11/30 05:32:03;;;;;;;0.20;0.15;;;;;;;;;;5094131;28;20024;-91
2021/11/30 05:34:29;;;;;;;0.10;0.10;;;;;;;;;;5088554;28;20059;-90
2021/11/30 05:36:54;;;;;;;0.03;0.03;;;;;;;;;;5093702;28;20099;-90
2021/11/30 05:39:19;;;;;;;0.17;0.17;;;;;;;;;;5093917;28;20090;-90
2021/11/30 05:41:45;;;;;;;0.10;0.10;;;;;;;;;;5090487;28;20474;-89
2021/11/30 05:44:10;;;;;;;0.00;0.00;;;;;;;;;;5093767;28;20060;-91
2021/11/30 05:46:37;;;;;;;0.30;0.30;;;;;;;;;;5090424;28;20460;-90
2021/11/30 05:49:05;;;;;;;0.00;0.00;;;;;;;;;;5093109;28;20484;-90
2021/11/30 05:51:31;;;;;;;0.00;0.00;;;;;;;;;;5093742;28;20456;-90
2021/11/30 05:53:56;;;;;;;0.10;0.10;;;;;;;;;;5093812;28;20021;-89
2021/11/30 05:56:21;;;;;;;0.35;0.20;;;;;;;;;;5094698;28;20446;-90
2021/11/30 05:58:47;;;;;;;0.00;0.00;;;;;;;;;;5098496;28;20137;-91
2021/11/30 06:01:30;;;;;;;0.10;0.10;;;;;;;;;;5093360;28;20023;-92
2021/11/30 06:03:58;;;;;;;0.10;0.10;;;;;;;;;;5098298;28;20039;-92
2021/11/30 06:06:24;;;;;;;0.10;0.10;;;;;;;;;;5098021;28;20016;-92
2021/11/30 06:08:49;;;;;;;0.00;0.00;;;;;;;;;;5093095;28;20039;-92
2021/11/30 06:11:15;;;;;;;0.00;0.00;;;;;;;;;;5092815;28;20087;-90
2021/11/30 06:13:40;;;;;;;0.00;0.00;;;;;;;;;;5097766;28;20026;-91
2021/11/30 06:16:05;;;;;;;0.00;0.00;;;;;;;;;;5097877;28;20514;-91
2021/11/30 06:18:30;;;;;;;0.10;0.10;;;;;;;;;;5097458;28;20051;-91
2021/11/30 06:20:57;;;;;;;0.10;0.10;;;;;;;;;;5091578;28;20012;-90
2021/11/30 06:23:22;;;;;;;0.13;0.13;;;;;;;;;;5097174;28;20032;-90
2021/11/30 06:25:48;;;;;;;0.00;0.00;;;;;;;;;;5092110;28;20028;-91
2021/11/30 06:28:13;;;;;;;0.00;0.00;;;;;;;;;;5096323;28;20095;-90
2021/11/30 06:30:38;;;;;;;0.00;0.00;;;;;;;;;;5097040;28;20032;-90
2021/11/30 06:33:03;;;;;;;0.00;0.00;;;;;;;;;;5097030;28;20529;-92
2021/11/30 06:35:29;;;;;;;0.03;0.03;;;;;;;;;;5091204;28;20426;-91
2021/11/30 06:37:54;;;;;;;0.00;0.00;;;;;;;;;;5097141;28;20133;-89
2021/11/30 06:40:19;;;;;;;0.08;0.08;;;;;;;;;;5096798;28;20452;-90
2021/11/30 06:42:45;;;;;;;0.00;0.00;;;;;;;;;;5089173;28;20064;-90
2021/11/30 06:45:10;;;;;;;0.00;0.00;;;;;;;;;;5096716;28;20028;-90
2021/11/30 06:47:37;;;;;;;0.10;0.10;;;;;;;;;;5096959;28;20077;-91
2021/11/30 06:50:02;;;;;;;0.10;0.10;;;;;;;;;;5097011;28;20101;-90
2021/11/30 06:52:28;;;;;;;0.00;0.00;;;;;;;;;;5096787;28;20069;-90
2021/11/30 06:54:54;;;;;;;0.10;0.10;;;;;;;;;;5096734;28;20024;-89
2021/11/30 06:57:21;;;;;;;0.20;0.20;;;;;;;;;;5093153;28;20035;-89
2021/11/30 06:59:46;;;;;;;0.43;0.43;;;;;;;;;;5091466;28;20075;-89
2021/11/30 07:02:13;;;;;;;0.10;0.10;;;;;;;;;;5091081;28;20113;-87
2021/11/30 07:04:42;;;;;;;0.40;0.40;;;;;;;;;;5096280;28;20069;-89
2021/11/30 07:15:04;;;;;;;0.30;0.30;;;;;;;;;;5091937;28;20024;-89
2021/11/30 07:17:31;;;;;;;0.50;0.50;;;;;;;;;;5096235;28;20054;-89
2021/11/30 07:19:57;;;;;;;0.20;0.20;;;;;;;;;;5096016;28;20035;-90
2021/11/30 07:22:22;;;;;;;3.03;0.95;;;;;;;;;;5092619;28;20020;-90
2021/11/30 07:24:47;;;;;;;0.47;0.47;;;;;;;;;;5095967;28;20036;-89
2021/11/30 07:27:12;;;;;;;0.10;0.10;;;;;;;;;;5095865;28;20020;-89
2021/11/30 07:29:38;;;;;;;0.80;0.80;;;;;;;;;;5095992;28;20361;-90
2021/11/30 07:32:03;;;;;;;0.40;0.40;;;;;;;;;;5095814;28;20040;-89
2021/11/30 07:34:29;;;;;;;0.47;0.47;;;;;;;;;;5092008;28;20016;-89
2021/11/30 07:36:54;;;;;;;1.67;0.68;;;;;;;;;;5089687;28;20020;-89
2021/11/30 07:39:20;;;;;;;2.65;0.70;;;;;;;;;;5092463;28;20044;-89
2021/11/30 07:41:45;;;;;;;0.10;0.10;;;;;;;;;;5096025;28;20044;-90
2021/11/30 07:44:10;;;;;;;0.10;0.10;;;;;;;;;;5090941;28;20024;-90
2021/11/30 07:46:37;;;;;;;0.65;0.45;;;;;;;;;;5095762;28;20036;-89
2021/11/30 07:49:02;;;;;;;1.35;0.98;;;;;;;;;;5093938;28;20023;-89
2021/11/30 07:51:28;;;;;;;1.90;1.42;;;;;;;;;;5095671;28;20024;-90
2021/11/30 07:53:54;;;;;;;0.30;0.30;;;;;;;;;;5095643;28;20051;-90
2021/11/30 07:56:19;;;;;;;0.32;0.30;;;;;;;;;;5095302;28;20052;-89
2021/11/30 07:58:45;;;;;;;0.20;0.20;;;;;;;;;;5089858;28;20055;-90
2021/11/30 08:01:12;;;;;;;0.25;0.25;;;;;;;;;;5092523;28;20040;-90
2021/11/30 08:03:37;;;;;;;0.35;0.35;;;;;;;;;;5095359;28;20107;-90
2021/11/30 08:06:03;;;;;;;0.98;0.57;;;;;;;;;;5092103;28;20055;-89
2021/11/30 08:08:28;;;;;;;0.75;0.75;;;;;;;;;;5080872;28;20063;-89
2021/11/30 08:10:53;;;;;;;0.10;0.10;;;;;;;;;;5084173;28;20028;-88
2021/11/30 08:13:19;;;;;;;0.98;0.98;;;;;;;;;;5095147;28;20020;-89
2021/11/30 08:15:44;;;;;;;0.10;0.10;;;;;;;;;;5095380;28;20107;-89
2021/11/30 08:18:09;;;;;;;0.50;0.50;;;;;;;;;;5088267;28;20039;-89
2021/11/30 08:20:35;;;;;;;0.20;0.20;;;;;;;;;;5076225;28;20388;-89
2021/11/30 08:23:00;;;;;;;0.38;0.38;;;;;;;;;;5095227;28;20475;-88
2021/11/30 08:25:26;;;;;;;0.10;0.10;;;;;;;;;;5091666;28;20095;-90
2021/11/30 08:27:52;;;;;;;0.30;0.25;;;;;;;;;;5091797;28;20020;-90
2021/11/30 08:30:17;;;;;;;0.00;0.00;;;;;;;;;;5094723;28;20488;-90
2021/11/30 08:32:43;;;;;;;0.30;0.30;;;;;;;;;;5094974;28;20074;-90
2021/11/30 08:35:09;;;;;;;0.50;0.50;;;;;;;;;;5095235;28;20020;-91
2021/11/30 08:37:34;;;;;;;2.45;0.63;;;;;;;;;;5094550;28;20499;-91
2021/11/30 08:39:59;;;;;;;0.93;0.28;;;;;;;;;;5091420;28;20032;-91
2021/11/30 08:42:25;;;;;;;0.70;0.70;;;;;;;;;;5094737;28;20047;-90
2021/11/30 08:44:51;;;;;;;0.10;0.10;;;;;;;;;;5094679;28;20476;-90
2021/11/30 08:47:17;;;;;;;0.20;0.20;;;;;;;;;;5091320;28;20122;-89
2021/11/30 08:49:43;;;;;;;0.30;0.30;;;;;;;;;;5094647;28;20365;-89
2021/11/30 08:52:11;;;;;;;0.43;0.43;;;;;;;;;;5086638;28;20040;-89
2021/11/30 08:54:37;;;;;;;0.10;0.10;;;;;;;;;;5090761;28;20051;-90
2021/11/30 08:57:02;;;;;;;0.20;0.20;;;;;;;;;;5093317;28;20040;-88
2021/11/30 08:59:28;;;;;;;0.10;0.10;;;;;;;;;;5092758;28;20066;-89
2021/11/30 09:01:54;;;;;;;1.75;0.63;;;;;;;;;;5086471;28;20023;-90
2021/11/30 09:04:19;;;;;;;1.67;1.05;;;;;;;;;;5086499;28;20023;-90
2021/11/30 09:06:44;;;;;;;0.52;0.50;;;;;;;;;;5091748;28;20491;-90
2021/11/30 09:09:10;;;;;;;0.10;0.10;;;;;;;;;;5092259;28;20055;-90
2021/11/30 09:11:36;;;;;;;0.20;0.20;;;;;;;;;;5092127;28;20164;-90
2021/11/30 09:14:02;;;;;;;0.10;0.10;;;;;;;;;;5091438;28;20028;-89
2021/11/30 09:16:27;;;;;;;0.35;0.35;;;;;;;;;;5088086;28;20020;-88
2021/11/30 09:18:53;;;;;;;0.32;0.30;;;;;;;;;;5091583;28;20032;-90
2021/11/30 09:21:18;;;;;;;0.63;0.63;;;;;;;;;;5088633;28;20174;-90
2021/11/30 09:23:45;;;;;;;0.22;0.22;;;;;;;;;;5091513;28;20396;-90
2021/11/30 09:26:10;;;;;;;0.00;0.00;;;;;;;;;;5091412;28;20020;-90
2021/11/30 09:28:36;;;;;;;0.10;0.10;;;;;;;;;;5090885;28;20027;-89
2021/11/30 09:31:01;;;;;;;0.65;0.30;;;;;;;;;;5090390;28;20024;-90
2021/11/30 09:33:27;;;;;;;0.10;0.10;;;;;;;;;;5091309;28;20039;-89
2021/11/30 09:35:52;;;;;;;0.10;0.10;;;;;;;;;;5091485;28;20036;-90
2021/11/30 09:38:17;;;;;;;0.10;0.10;;;;;;;;;;5087997;28;20060;-90
2021/11/30 09:40:43;;;;;;;1.70;1.02;;;;;;;;;;5083186;28;20510;-89
2021/11/30 09:43:08;;;;;;;0.10;0.10;;;;;;;;;;5083571;28;20507;-90
2021/11/30 09:45:37;;;;;;;3.63;0.55;;;;;;;;;;5091343;28;20073;-90
2021/11/30 09:48:02;;;;;;;0.00;0.00;;;;;;;;;;5089968;28;20012;-90
2021/11/30 09:50:28;;;;;;;0.13;0.13;;;;;;;;;;5088040;28;20040;-89
2021/11/30 09:52:56;;;;;;;0.10;0.10;;;;;;;;;;5068601;28;20353;-90
2021/11/30 09:55:23;;;;;;;0.00;0.00;;;;;;;;;;5078671;28;20472;-91
2021/11/30 09:57:49;;;;;;;0.00;0.00;;;;;;;;;;5090949;28;20036;-91
2021/11/30 10:00:15;;;;;;;0.20;0.20;;;;;;;;;;5091370;28;20147;-90
2021/11/30 10:02:40;;;;;;;0.98;0.85;;;;;;;;;;5091253;28;20508;-89
2021/11/30 10:05:06;;;;;;;0.32;0.30;;;;;;;;;;5091472;28;20056;-90
2021/11/30 10:07:42;;;;;;;0.25;0.25;;;;;;;;;;5091606;28;20027;-90
2021/11/30 10:10:11;;;;;;;0.20;0.20;;;;;;;;;;5091418;28;20499;-89
2021/11/30 10:12:36;;;;;;;2.08;1.73;;;;;;;;;;5091636;28;20103;-90
2021/11/30 10:15:06;;;;;;;0.10;0.10;;;;;;;;;;5087724;28;21044;-89
2021/11/30 10:17:34;;;;;;;0.40;0.40;;;;;;;;;;5091126;28;20099;-90
2021/11/30 10:20:04;;;;;;;0.13;0.13;;;;;;;;;;5090870;28;20047;-90
2021/11/30 10:22:37;;;;;;;0.22;0.22;;;;;;;;;;5078373;28;20012;-89
2021/11/30 10:25:28;;;;;;;0.20;0.20;;;;;;;;;;5090708;28;20020;-89
2021/11/30 10:27:55;;;;;;;0.10;0.10;;;;;;;;;;5076742;28;20124;-90
2021/11/30 10:30:22;;;;;;;0.00;0.00;;;;;;;;;;5086007;28;20043;-89
2021/11/30 10:32:50;;;;;;;0.30;0.30;;;;;;;;;;5090627;28;20043;-90
2021/11/30 10:35:15;;;;;;;0.10;0.10;;;;;;;;;;5087759;28;20158;-89
2021/11/30 10:37:42;;;;;;;0.00;0.00;;;;;;;;;;5087268;28;20107;-88
2021/11/30 10:40:09;;;;;;;0.03;0.03;;;;;;;;;;5090422;28;20627;-89
2021/11/30 10:42:43;;;;;;;0.00;0.00;;;;;;;;;;5091261;28;20054;-90
2021/11/30 10:45:08;;;;;;;0.10;0.10;;;;;;;;;;5094513;28;20031;-89
2021/11/30 10:47:36;;;;;;;0.00;0.00;;;;;;;;;;5094727;28;20055;-90
2021/11/30 10:50:08;;;;;;;0.00;0.00;;;;;;;;;;5090664;28;20061;-89
2021/11/30 10:52:33;;;;;;;0.00;0.00;;;;;;;;;;5093987;28;20032;-90
2021/11/30 10:55:05;;;;;;;0.10;0.10;;;;;;;;;;5090575;28;20463;-89
2021/11/30 10:57:32;;;;;;;0.00;0.00;;;;;;;;;;5094045;28;20468;-90
2021/11/30 11:00:07;;;;;;;0.57;0.57;;;;;;;;;;5093875;28;20050;-90
2021/11/30 11:03:09;;;;;;;0.00;0.00;;;;;;;;;;5094254;28;20028;-89
2021/11/30 11:05:35;;;;;;;0.00;0.00;;;;;;;;;;5093994;28;20463;-89
2021/11/30 11:08:09;;;;;;;0.00;0.00;;;;;;;;;;5090780;28;20036;-89
2021/11/30 11:10:36;;;;;;;0.10;0.10;;;;;;;;;;5093906;28;20024;-89
2021/11/30 11:13:20;;;;;;;0.00;0.00;;;;;;;;;;5090455;28;20055;-89
2021/11/30 11:15:45;;;;;;;0.00;0.00;;;;;;;;;;5093782;28;20034;-89
2021/11/30 11:18:37;;;;;;;0.00;0.00;;;;;;;;;;5093403;28;20122;-90
2021/11/30 11:21:15;;;;;;;0.00;0.00;;;;;;;;;;5086382;28;20075;-89
2021/11/30 11:23:43;;;;;;;0.00;0.00;;;;;;;;;;5093587;28;20040;-89
2021/11/30 11:26:20;;;;;;;0.10;0.10;;;;;;;;;;5093705;28;20122;-90
2021/11/30 11:28:46;;;;;;;0.00;0.00;;;;;;;;;;5093248;28;20074;-89
2021/11/30 11:31:11;;;;;;;0.00;0.00;;;;;;;;;;5090351;28;20060;-89
2021/11/30 11:33:36;;;;;;;0.20;0.20;;;;;;;;;;5090039;28;20035;-91
2021/11/30 11:36:04;;;;;;;0.00;0.00;;;;;;;;;;5094090;28;20385;-90
2021/11/30 11:38:30;;;;;;;0.00;0.00;;;;;;;;;;5093734;28;20024;-89
2021/11/30 11:40:55;;;;;;;0.00;0.00;;;;;;;;;;5093096;28;20514;-89
2021/11/30 11:43:21;;;;;;;0.20;0.20;;;;;;;;;;5085615;28;20028;-90
2021/11/30 11:45:46;;;;;;;0.00;0.00;;;;;;;;;;5093643;28;20456;-89
2021/11/30 11:48:11;;;;;;;0.00;0.00;;;;;;;;;;5093729;28;20185;-89
2021/11/30 11:51:00;;;;;;;0.00;0.00;;;;;;;;;;5093853;28;20031;-90
2021/11/30 11:53:32;;;;;;;0.00;0.00;;;;;;;;;;5083965;28;20040;-90
2021/11/30 11:56:06;;;;;;;0.10;0.10;;;;;;;;;;5083914;28;20028;-90
2021/11/30 11:58:32;;;;;;;0.00;0.00;;;;;;;;;;5073294;28;20029;-90
2021/11/30 12:00:58;;;;;;;0.00;0.00;;;;;;;;;;5090268;28;20032;-91
2021/11/30 12:03:43;;;;;;;0.70;0.57;;;;;;;;;;5093131;28;20073;-90
2021/11/30 12:06:35;;;;;;;0.20;0.20;;;;;;;;;;5092711;28;20139;-91
2021/11/30 12:09:12;;;;;;;0.08;0.08;;;;;;;;;;5089894;28;20044;-91
2021/11/30 12:11:48;;;;;;;0.30;0.30;;;;;;;;;;5093200;28;20103;-90
2021/11/30 12:14:21;;;;;;;0.10;0.10;;;;;;;;;;5088112;28;20036;-90
2021/11/30 12:17:06;;;;;;;0.00;0.00;;;;;;;;;;5092879;28;20036;-90
2021/11/30 12:19:35;;;;;;;0.10;0.10;;;;;;;;;;5092733;28;20036;-90
2021/11/30 12:22:00;;;;;;;0.00;0.00;;;;;;;;;;5074711;28;20054;-89
2021/11/30 12:24:39;;;;;;;0.03;0.03;;;;;;;;;;5092419;28;20028;-89
2021/11/30 12:27:17;;;;;;;0.00;0.00;;;;;;;;;;5089476;28;20032;-90
2021/11/30 12:32:59;;;;;;;1.23;0.63;;;;;;;;;;5091897;28;20053;-91
2021/11/30 12:35:40;;;;;;;0.20;0.20;;;;;;;;;;5088965;28;20035;-89
2021/11/30 12:38:19;;;;;;;0.00;0.00;;;;;;;;;;5087791;28;20107;-89
2021/11/30 12:40:48;;;;;;;0.05;0.05;;;;;;;;;;5092237;28;20371;-91
2021/11/30 12:43:14;;;;;;;0.10;0.10;;;;;;;;;;5093112;28;20073;-90
2021/11/30 12:45:45;;;;;;;0.00;0.00;;;;;;;;;;5092538;28;20044;-90
2021/11/30 12:48:18;;;;;;;0.00;0.00;;;;;;;;;;5084098;28;20039;-90
2021/11/30 12:50:44;;;;;;;0.00;0.00;;;;;;;;;;5088605;28;20103;-89
2021/11/30 12:53:09;;;;;;;0.00;0.00;;;;;;;;;;5092816;28;20489;-90
2021/11/30 12:55:43;;;;;;;0.10;0.10;;;;;;;;;;5092153;28;20037;-90
2021/11/30 12:58:08;;;;;;;0.10;0.10;;;;;;;;;;5092887;28;20016;-90
2021/11/30 13:00:33;;;;;;;0.10;0.10;;;;;;;;;;5009945;28;20099;-91
2021/11/30 13:03:16;;;;;;;0.00;0.00;;;;;;;;;;4987789;28;20057;-91
2021/11/30 13:05:52;;;;;;;0.10;0.10;;;;;;;;;;4994925;28;20413;-92
2021/11/30 13:08:17;;;;;;;0.00;0.00;;;;;;;;;;4991141;28;20034;-90
2021/11/30 13:10:47;;;;;;;0.20;0.15;;;;;;;;;;4990715;28;20040;-90
2021/11/30 13:13:18;;;;;;;1.45;0.93;;;;;;;;;;5001904;28;20071;-91
2021/11/30 13:15:47;;;;;;;0.00;0.00;;;;;;;;;;5007570;28;20050;-90
2021/11/30 13:18:13;;;;;;;0.10;0.10;;;;;;;;;;5010389;28;20042;-91
2021/11/30 13:20:38;;;;;;;0.00;0.00;;;;;;;;;;5010291;28;20053;-91
2021/11/30 13:23:04;;;;;;;0.20;0.20;;;;;;;;;;5001463;28;20030;-91
2021/11/30 13:25:31;;;;;;;0.10;0.10;;;;;;;;;;5010304;28;20065;-91
2021/11/30 13:28:19;;;;;;;0.00;0.00;;;;;;;;;;5010490;28;20029;-91
2021/11/30 13:30:46;;;;;;;0.00;0.00;;;;;;;;;;5013259;28;20119;-92
2021/11/30 13:33:13;;;;;;;0.05;0.05;;;;;;;;;;5092215;28;20028;-91
2021/11/30 13:35:40;;;;;;;0.00;0.00;;;;;;;;;;5088409;28;20023;-91
2021/11/30 13:38:17;;;;;;;0.00;0.00;;;;;;;;;;5091993;28;20063;-90
2021/11/30 13:40:44;;;;;;;0.00;0.00;;;;;;;;;;5091809;28;20095;-90
2021/11/30 13:43:35;;;;;;;0.00;0.00;;;;;;;;;;5091975;28;20028;-90
2021/11/30 13:46:05;;;;;;;0.00;0.00;;;;;;;;;;5085878;28;20063;-91
2021/11/30 13:48:31;;;;;;;0.00;0.00;;;;;;;;;;5083645;28;20052;-91
2021/11/30 13:50:58;;;;;;;0.00;0.00;;;;;;;;;;5090156;28;20038;-91
2021/11/30 13:53:24;;;;;;;0.10;0.10;;;;;;;;;;5085312;28;20020;-90
2021/11/30 13:55:59;;;;;;;0.00;0.00;;;;;;;;;;5090968;28;20035;-91
2021/11/30 13:58:33;;;;;;;0.00;0.00;;;;;;;;;;5080232;28;20513;-90
2021/11/30 14:01:17;;;;;;;0.00;0.00;;;;;;;;;;5090539;28;20032;-91
2021/11/30 14:03:43;;;;;;;0.90;0.85;;;;;;;;;;5090072;28;20571;-89
2021/11/30 14:06:19;;;;;;;0.10;0.10;;;;;;;;;;5088624;28;20380;-91
2021/11/30 14:08:45;;;;;;;0.00;0.00;;;;;;;;;;5091402;28;20460;-90
2021/11/30 14:11:14;;;;;;;0.10;0.10;;;;;;;;;;5073924;28;20115;-90
2021/11/30 14:13:40;;;;;;;0.10;0.10;;;;;;;;;;5092076;28;20031;-91
2021/11/30 14:16:05;;;;;;;0.90;0.55;;;;;;;;;;5091292;28;20056;-90
2021/11/30 14:18:30;;;;;;;0.00;0.00;;;;;;;;;;5094367;28;20126;-91
2021/11/30 14:20:55;;;;;;;0.10;0.10;;;;;;;;;;5095100;28;20040;-90
2021/11/30 14:23:21;;;;;;;0.43;0.43;;;;;;;;;;5095353;28;20138;-90
2021/11/30 14:25:46;;;;;;;0.40;0.40;;;;;;;;;;5095923;28;20043;-91
2021/11/30 14:28:14;;;;;;;0.00;0.00;;;;;;;;;;5091926;28;20124;-91
2021/11/30 14:30:40;;;;;;;0.10;0.10;;;;;;;;;;5091945;28;20035;-91
2021/11/30 14:33:07;;;;;;;0.10;0.10;;;;;;;;;;5094915;28;20111;-90
2021/11/30 14:35:42;;;;;;;0.10;0.10;;;;;;;;;;5094767;28;20035;-89
2021/11/30 14:38:09;;;;;;;0.00;0.00;;;;;;;;;;5095041;28;20498;-91
2021/11/30 14:40:38;;;;;;;0.05;0.05;;;;;;;;;;5072346;28;20608;-90
2021/11/30 14:43:03;;;;;;;0.10;0.10;;;;;;;;;;5072215;28;20107;-91
2021/11/30 14:45:31;;;;;;;0.00;0.00;;;;;;;;;;5069070;28;20457;-90
2021/11/30 14:48:03;;;;;;;0.00;0.00;;;;;;;;;;5055762;28;20066;-91
2021/11/30 14:50:31;;;;;;;0.20;0.20;;;;;;;;;;5069513;28;20062;-90
2021/11/30 14:52:57;;;;;;;0.40;0.40;;;;;;;;;;5072182;28;20566;-89
2021/11/30 14:55:23;;;;;;;0.10;0.10;;;;;;;;;;5072542;28;20033;-91
2021/11/30 14:57:48;;;;;;;0.10;0.10;;;;;;;;;;5072416;28;20038;-90
2021/11/30 15:00:32;;;;;;;0.10;0.10;;;;;;;;;;5067459;28;20052;-90
2021/11/30 15:03:05;;;;;;;0.03;0.03;;;;;;;;;;5072809;28;20050;-90
2021/11/30 15:05:37;;;;;;;0.00;0.00;;;;;;;;;;5055039;28;20082;-90
2021/11/30 15:08:21;;;;;;;6.75;1.65;;;;;;;;;;5072178;28;20034;-90
2021/11/30 15:10:55;;;;;;;0.10;0.10;;;;;;;;;;5056084;28;20468;-91